Etusivu
METAR-TAF:

METAR-TAF

Lentoasemat :

Palacios Municipal Airport

Palacios, Texas, Yhdysvallat

Leveyspiiri: 28-43-39N, Pituuspiiri: 096-15-03W, korkeus merenpinnasta: 5 m

Tämänhetkinen sää

Tämä raportti tehtiin 18 minuuttia sitten, kello 16.53 UTC
Tuuli 15 kn etelästä/kaakosta
Lämpötila 30°C
Kosteus 62%
Ilmanpaine 1018 hPa
Näkyvyys: 16.1 km
Muutamia pilviä 2700 ft:n korkeudessa

METAR: KPSX 261653Z AUTO 15015KT 10SM FEW027 30/22 A3007 RMK AO2 SLP183 T03000217

Aika: 12:11 (17:11 UTC)


TAF: puuttuu

Säähavainnot ja -ennusteet yli 4000 lentoasemalta (METAR- ja TAF-raportit).

Käytössä olevat sääasemat on merkitty karttaan keltaisilla ja punaisilla pisteillä.

Aseta hiiri pisteen päälle nähdäksesi sääaseman nimen.

Klikkaa sitten nähdäksesi säähavainnot ja -ennusteet.

Kartan vaihtaminen: klikkaa mustalla rastilla varustettuja vihreitä pisteitä, niin voit zoomata sisään; viivalla varustettua vihreää pistettä, niin voit zoomata ulos tai vihreitä nuolia, niin pääset viereisille kartoille.


METAR-TAF: